createdAt,value
2017-09-24T00:01:16.603Z,101.13
2017-09-24T00:03:44.849Z,100.57
2017-09-24T00:06:12.257Z,93.93
2017-09-24T00:08:39.678Z,99.53
2017-09-24T00:11:07.107Z,104.70
2017-09-24T00:13:34.508Z,107.30
2017-09-24T00:16:01.942Z,100.20
2017-09-24T00:18:29.344Z,105.53
2017-09-24T00:20:56.787Z,110.67
2017-09-24T00:23:24.198Z,102.30
2017-09-24T00:25:51.649Z,102.60
2017-09-24T00:28:19.068Z,111.50
2017-09-24T00:30:46.509Z,105.80
2017-09-24T00:33:14.240Z,107.33
2017-09-24T00:35:41.651Z,103.30
2017-09-24T00:38:09.093Z,116.20
2017-09-24T00:40:36.516Z,109.93
2017-09-24T00:43:03.950Z,114.27
2017-09-24T00:45:31.387Z,109.80
2017-09-24T00:47:58.756Z,112.70
2017-09-24T00:50:26.193Z,113.53
2017-09-24T00:52:53.629Z,113.20
2017-09-24T00:55:21.057Z,118.13
2017-09-24T00:57:48.430Z,114.97
2017-09-24T01:00:15.857Z,115.17
2017-09-24T01:02:43.270Z,114.13
2017-09-24T01:05:10.669Z,118.90
2017-09-24T01:07:38.112Z,111.57
2017-09-24T01:10:05.542Z,118.83
2017-09-24T01:12:32.983Z,114.90
2017-09-24T01:15:00.434Z,115.40
2017-09-24T01:17:27.871Z,114.33
2017-09-24T01:19:55.289Z,106.70
2017-09-24T01:22:22.821Z,112.30
2017-09-24T01:24:50.281Z,109.43
2017-09-24T01:27:17.656Z,115.50
2017-09-24T01:29:45.085Z,112.57
2017-09-24T01:32:12.517Z,122.67
2017-09-24T01:34:39.939Z,116.23
2017-09-24T01:37:07.344Z,104.67
2017-09-24T01:39:34.756Z,103.90
2017-09-24T01:42:02.201Z,110.73
2017-09-24T01:44:29.744Z,116.70
2017-09-24T01:46:57.172Z,124.13
2017-09-24T01:52:06.038Z,121.70
2017-09-24T01:54:33.430Z,121.57
2017-09-24T01:57:00.845Z,117.77
2017-09-24T01:59:28.259Z,112.47
2017-09-24T02:01:55.673Z,111.03
2017-09-24T02:04:23.076Z,125.80
2017-09-24T02:06:50.495Z,117.70
2017-09-24T02:09:17.909Z,122.00
2017-09-24T02:11:45.363Z,126.63
2017-09-24T02:14:12.757Z,121.70
2017-09-24T02:16:40.177Z,125.97
2017-09-24T02:19:07.612Z,120.87
2017-09-24T02:21:35.007Z,122.63
2017-09-24T02:24:02.441Z,132.23
2017-09-24T02:26:29.838Z,122.23
2017-09-24T02:28:57.246Z,127.60
2017-09-24T02:31:24.673Z,132.57
2017-09-24T02:33:52.088Z,127.17
2017-09-24T02:36:19.511Z,127.13
2017-09-24T02:38:46.937Z,128.73
2017-09-24T02:41:14.350Z,131.83
2017-09-24T02:43:41.761Z,128.30
2017-09-24T02:46:09.169Z,131.47
2017-09-24T02:48:36.570Z,134.23
2017-09-24T02:51:03.997Z,131.25
2017-09-24T02:53:31.438Z,126.67
2017-09-24T02:55:58.864Z,122.90
2017-09-24T02:58:26.290Z,137.03
2017-09-24T03:00:53.713Z,124.47
2017-09-24T03:03:21.121Z,123.73
2017-09-24T03:05:49.221Z,133.27
2017-09-24T03:08:16.619Z,129.27
2017-09-24T03:10:44.039Z,129.13
2017-09-24T03:13:11.455Z,131.40
2017-09-24T03:15:38.881Z,126.80
2017-09-24T03:18:06.292Z,124.35
2017-09-24T03:20:33.719Z,116.33
2017-09-24T03:23:01.130Z,128.23
2017-09-24T03:25:28.529Z,118.00
2017-09-24T03:27:55.956Z,126.30
2017-09-24T03:30:23.359Z,129.35
2017-09-24T03:32:50.821Z,129.93
2017-09-24T03:35:18.218Z,142.93
2017-09-24T03:37:45.654Z,132.73
2017-09-24T03:40:13.059Z,135.83
2017-09-24T03:42:40.456Z,147.87
2017-09-24T03:45:07.903Z,137.23
2017-09-24T03:47:35.321Z,141.23
2017-09-24T03:50:02.738Z,140.13
2017-09-24T03:52:30.145Z,137.40
2017-09-24T03:54:57.916Z,144.50
2017-09-24T03:57:25.339Z,141.87
2017-09-24T03:59:52.760Z,136.37
2017-09-24T04:02:20.152Z,142.40
2017-09-24T04:04:47.593Z,142.13
2017-09-24T04:07:15.005Z,137.77
2017-09-24T04:09:42.422Z,146.20
2017-09-24T04:12:09.847Z,140.13
2017-09-24T04:14:37.257Z,142.37
2017-09-24T04:17:04.682Z,140.05
2017-09-24T04:19:32.086Z,147.07
2017-09-24T04:21:59.503Z,141.57
2017-09-24T04:24:26.926Z,148.60
2017-09-24T04:26:54.321Z,142.90
2017-09-24T04:29:21.747Z,133.90
2017-09-24T04:31:49.176Z,145.83
2017-09-24T04:34:16.600Z,135.27
2017-09-24T04:36:44.092Z,143.87
2017-09-24T04:39:11.498Z,138.07
2017-09-24T04:41:38.947Z,152.10
2017-09-24T04:44:06.358Z,150.83
2017-09-24T04:46:33.758Z,143.20
2017-09-24T04:49:01.173Z,158.23
2017-09-24T04:51:28.582Z,143.10
2017-09-24T04:53:56.018Z,143.85
2017-09-24T04:56:23.437Z,153.93
2017-09-24T04:58:50.850Z,156.40
2017-09-24T05:01:18.269Z,157.47
2017-09-24T05:03:45.902Z,167.13
2017-09-24T05:06:13.324Z,158.60
2017-09-24T05:08:40.727Z,155.97
2017-09-24T05:11:08.154Z,146.67
2017-09-24T05:13:35.568Z,162.30
2017-09-24T05:16:03.002Z,168.30
2017-09-24T05:18:30.437Z,175.30
2017-09-24T05:20:57.854Z,162.93
2017-09-24T05:23:25.286Z,164.73
2017-09-24T05:25:52.719Z,174.40
2017-09-24T05:28:20.350Z,173.07
2017-09-24T05:30:47.777Z,155.43
2017-09-24T05:33:15.186Z,162.17
2017-09-24T05:35:42.595Z,161.27
2017-09-24T05:38:10.021Z,151.23
2017-09-24T05:40:37.434Z,151.63
2017-09-24T05:43:04.836Z,163.90
2017-09-24T05:45:32.354Z,156.43
2017-09-24T05:47:59.771Z,144.27
2017-09-24T05:50:27.781Z,148.77
2017-09-24T05:52:55.213Z,149.93
2017-09-24T05:55:22.646Z,146.37
2017-09-24T05:57:50.068Z,145.50
2017-09-24T06:00:17.528Z,140.77
2017-09-24T06:02:44.940Z,148.17
2017-09-24T06:05:12.345Z,145.13
2017-09-24T06:07:39.785Z,135.70
2017-09-24T06:10:07.210Z,140.43
2017-09-24T06:12:34.628Z,144.27
2017-09-24T06:15:02.020Z,132.73
2017-09-24T06:17:29.449Z,125.40
2017-09-24T06:19:56.865Z,137.20
2017-09-24T06:22:24.298Z,127.07
2017-09-24T06:24:51.724Z,121.87
2017-09-24T06:27:19.149Z,126.83
2017-09-24T06:29:46.580Z,117.30
2017-09-24T06:32:13.995Z,122.83
2017-09-24T06:34:41.450Z,116.30
2017-09-24T06:37:08.857Z,119.60
2017-09-24T06:39:36.297Z,116.73
2017-09-24T06:42:03.697Z,112.67
2017-09-24T06:44:31.105Z,110.67
2017-09-24T06:46:58.529Z,111.43
2017-09-24T06:49:25.941Z,115.53
2017-09-24T06:51:53.361Z,111.87
2017-09-24T06:54:20.812Z,110.53
2017-09-24T06:56:48.220Z,101.43
2017-09-24T06:59:15.641Z,96.03
2017-09-24T07:01:43.088Z,100.60
2017-09-24T07:04:10.593Z,92.37
2017-09-24T07:06:38.000Z,97.33
2017-09-24T07:09:05.397Z,99.10
2017-09-24T07:11:32.810Z,93.67
2017-09-24T07:14:00.269Z,97.60
2017-09-24T07:16:27.690Z,104.60
2017-09-24T07:18:55.098Z,94.47
2017-09-24T07:21:22.524Z,100.90
2017-09-24T07:23:49.965Z,108.40
2017-09-24T07:26:17.414Z,98.30
2017-09-24T07:28:44.832Z,97.07
2017-09-24T07:31:12.269Z,90.33
2017-09-24T07:33:39.677Z,92.20
2017-09-24T07:36:07.085Z,95.20
2017-09-24T07:38:34.510Z,99.30
2017-09-24T07:41:02.002Z,91.93
2017-09-24T07:43:29.416Z,87.80
2017-09-24T07:45:56.815Z,93.40
2017-09-24T07:48:24.270Z,90.40
2017-09-24T07:50:51.693Z,91.43
2017-09-24T07:53:19.087Z,97.20
2017-09-24T07:55:46.520Z,91.70
2017-09-24T07:58:13.912Z,88.27
2017-09-24T08:00:41.368Z,88.50
2017-09-24T08:03:08.792Z,88.30
2017-09-24T08:05:36.195Z,81.63
2017-09-24T08:08:03.616Z,79.53
2017-09-24T08:10:31.032Z,81.60
2017-09-24T08:12:58.483Z,74.87
2017-09-24T08:15:25.861Z,77.10
2017-09-24T08:17:53.286Z,73.43
2017-09-24T08:20:20.693Z,81.30
2017-09-24T08:22:48.123Z,72.90
2017-09-24T08:25:15.522Z,68.37
2017-09-24T08:27:42.938Z,69.80
2017-09-24T08:30:10.332Z,72.43
2017-09-24T08:32:37.771Z,71.07
2017-09-24T08:35:05.226Z,69.37
2017-09-24T08:37:32.637Z,69.55
2017-09-24T08:40:00.069Z,67.93
2017-09-24T08:42:27.471Z,73.77
2017-09-24T08:44:54.898Z,65.33
2017-09-24T08:47:22.312Z,57.93
2017-09-24T08:49:49.739Z,62.62
2017-09-24T08:52:17.134Z,60.93
2017-09-24T08:54:44.565Z,63.23
2017-09-24T08:57:11.977Z,60.30
2017-09-24T08:59:39.381Z,56.97
2017-09-24T09:02:06.822Z,54.55
2017-09-24T09:04:34.255Z,55.60
2017-09-24T09:07:01.695Z,56.67
2017-09-24T09:09:29.093Z,57.13
2017-09-24T09:11:56.506Z,55.63
2017-09-24T09:14:23.939Z,51.50
2017-09-24T09:16:51.376Z,53.90
2017-09-24T09:19:18.815Z,47.57
2017-09-24T09:21:46.239Z,48.40
2017-09-24T09:24:13.756Z,48.33
2017-09-24T09:26:41.181Z,46.60
2017-09-24T09:29:08.607Z,40.87
2017-09-24T09:31:36.056Z,38.88
2017-09-24T09:34:15.124Z,33.20
2017-09-24T09:36:42.571Z,33.53
2017-09-24T09:39:10.010Z,31.63
2017-09-24T09:41:37.444Z,34.27
2017-09-24T09:44:04.850Z,31.00
2017-09-24T09:46:43.870Z,39.17
2017-09-24T09:49:11.319Z,31.17
2017-09-24T09:51:38.771Z,31.67
2017-09-24T09:54:06.164Z,22.58
2017-09-24T09:56:33.625Z,19.77
2017-09-24T09:59:01.029Z,20.47
2017-09-24T10:01:28.428Z,21.33
2017-09-24T10:03:55.917Z,20.77
2017-09-24T10:09:37.115Z,18.53
2017-09-24T10:12:04.573Z,18.43
2017-09-24T10:14:32.346Z,17.40
2017-09-24T10:16:59.744Z,14.90
2017-09-24T10:19:27.174Z,15.37
2017-09-24T10:21:54.711Z,21.27
2017-09-24T10:24:22.118Z,16.77
2017-09-24T10:26:49.554Z,15.83
2017-09-24T10:29:30.859Z,17.57
2017-09-24T10:32:08.738Z,16.90
2017-09-24T10:34:36.216Z,16.40
2017-09-24T10:37:03.673Z,18.10
2017-09-24T10:39:31.093Z,14.83
2017-09-24T10:41:58.524Z,15.55
2017-09-24T10:44:25.949Z,16.40
2017-09-24T10:46:53.345Z,14.77
2017-09-24T10:49:20.783Z,14.23
2017-09-24T10:51:48.193Z,13.93
2017-09-24T10:54:15.606Z,13.82
2017-09-24T10:56:43.013Z,13.53
2017-09-24T10:59:10.455Z,13.00
2017-09-24T11:01:37.856Z,15.90
2017-09-24T11:04:05.270Z,17.63
2017-09-24T11:06:32.707Z,16.65
2017-09-24T11:09:00.115Z,17.97
2017-09-24T11:11:27.539Z,16.97
2017-09-24T11:13:54.943Z,17.37
2017-09-24T11:16:22.369Z,16.90
2017-09-24T11:18:49.797Z,17.00
2017-09-24T11:21:17.225Z,15.20
2017-09-24T11:23:44.650Z,17.03
2017-09-24T11:26:12.112Z,16.40
2017-09-24T11:28:39.530Z,16.87
2017-09-24T11:31:06.957Z,14.10
2017-09-24T11:33:34.401Z,13.93
2017-09-24T11:36:01.827Z,15.87
2017-09-24T11:38:29.245Z,24.63
2017-09-24T11:40:56.685Z,15.60
2017-09-24T11:43:24.128Z,15.30
2017-09-24T11:45:51.541Z,16.97
2017-09-24T11:48:18.940Z,16.80
2017-09-24T11:50:46.379Z,15.87
2017-09-24T11:53:13.784Z,14.97
2017-09-24T11:55:41.205Z,18.90
2017-09-24T11:58:08.633Z,15.60
2017-09-24T12:00:36.039Z,13.30
2017-09-24T12:03:03.502Z,18.63
2017-09-24T12:05:30.913Z,17.63
2017-09-24T12:07:58.351Z,22.63
2017-09-24T12:10:25.780Z,23.23
2017-09-24T12:12:53.182Z,22.53
2017-09-24T12:15:20.673Z,21.87
2017-09-24T12:17:48.086Z,22.00
2017-09-24T12:20:15.505Z,27.27
2017-09-24T12:22:42.904Z,30.87
2017-09-24T12:25:10.374Z,33.03
2017-09-24T12:27:37.771Z,33.93
2017-09-24T12:30:05.182Z,33.87
2017-09-24T12:32:32.639Z,34.20
2017-09-24T12:35:00.044Z,32.70
2017-09-24T12:37:27.471Z,35.10
2017-09-24T12:39:54.865Z,35.53
2017-09-24T12:42:22.309Z,28.23
2017-09-24T12:44:49.906Z,28.17
2017-09-24T12:47:18.160Z,27.87
2017-09-24T12:49:45.627Z,28.53
2017-09-24T12:52:13.045Z,25.97
2017-09-24T12:54:40.491Z,26.20
2017-09-24T12:57:07.936Z,26.33
2017-09-24T12:59:35.375Z,26.00
2017-09-24T13:02:02.770Z,25.03
2017-09-24T13:04:30.169Z,22.63
2017-09-24T13:06:57.608Z,21.97
2017-09-24T13:09:25.178Z,24.00
2017-09-24T13:11:52.624Z,21.10
2017-09-24T13:14:20.038Z,22.40
2017-09-24T13:16:47.448Z,21.37
2017-09-24T13:19:14.853Z,22.00
2017-09-24T13:21:42.298Z,25.67
2017-09-24T13:24:09.713Z,20.40
2017-09-24T13:26:37.175Z,22.00
2017-09-24T13:29:04.712Z,21.17
2017-09-24T13:31:32.128Z,20.33
2017-09-24T13:33:59.549Z,20.80
2017-09-24T13:36:26.960Z,18.35
2017-09-24T13:38:54.365Z,16.57
2017-09-24T13:41:21.814Z,19.73
2017-09-24T13:43:49.231Z,23.13
2017-09-24T13:46:16.640Z,21.63
2017-09-24T13:48:44.054Z,20.60
2017-09-24T13:51:11.539Z,21.97
2017-09-24T13:53:38.977Z,21.00
2017-09-24T13:56:06.423Z,20.27
2017-09-24T13:58:33.961Z,19.23
2017-09-24T14:01:01.387Z,19.23
2017-09-24T14:03:28.809Z,19.37
2017-09-24T14:05:56.230Z,20.53
2017-09-24T14:08:24.307Z,20.70
2017-09-24T14:10:51.747Z,21.10
2017-09-24T14:13:19.194Z,20.83
2017-09-24T14:15:46.654Z,23.80
2017-09-24T14:18:14.093Z,20.77
2017-09-24T14:20:41.524Z,22.60
2017-09-24T14:23:09.015Z,23.63
2017-09-24T14:25:36.426Z,20.80
2017-09-24T14:28:04.001Z,23.93
2017-09-24T14:30:31.726Z,21.80
2017-09-24T14:32:59.263Z,21.47
2017-09-24T14:35:26.678Z,21.37
2017-09-24T14:37:54.133Z,20.13
2017-09-24T14:40:21.681Z,20.93
2017-09-24T14:42:50.716Z,19.73
2017-09-24T14:45:18.163Z,19.10
2017-09-24T14:47:45.568Z,18.03
2017-09-24T14:50:12.963Z,18.50
2017-09-24T14:52:40.393Z,20.30
2017-09-24T14:55:07.845Z,19.30
2017-09-24T14:57:35.283Z,17.57
2017-09-24T15:00:02.705Z,17.53
2017-09-24T15:02:30.200Z,19.40
2017-09-24T15:04:57.624Z,17.90
2017-09-24T15:07:25.076Z,20.60
2017-09-24T15:09:52.493Z,18.60
2017-09-24T15:12:19.924Z,18.50
2017-09-24T15:14:47.346Z,18.07
2017-09-24T15:17:14.789Z,23.83
2017-09-24T15:19:42.178Z,19.20
2017-09-24T15:22:09.633Z,18.07
2017-09-24T15:24:37.123Z,18.67
2017-09-24T15:27:04.554Z,16.37
2017-09-24T15:29:31.983Z,16.10
2017-09-24T15:31:59.427Z,20.40
2017-09-24T15:34:29.291Z,15.27
2017-09-24T15:36:56.894Z,15.20
2017-09-24T15:39:24.329Z,14.83
2017-09-24T15:41:51.743Z,15.63
2017-09-24T15:44:19.178Z,15.37
2017-09-24T15:46:46.607Z,14.15
2017-09-24T15:49:14.034Z,13.67
2017-09-24T15:51:41.452Z,13.60
2017-09-24T15:54:08.883Z,12.73
2017-09-24T15:56:36.287Z,11.67
2017-09-24T15:59:03.717Z,12.03
2017-09-24T16:01:31.127Z,12.80
2017-09-24T16:03:58.548Z,12.00
2017-09-24T16:06:25.987Z,14.33
2017-09-24T16:08:53.390Z,13.37
2017-09-24T16:11:20.834Z,13.23
2017-09-24T16:13:48.261Z,13.63
2017-09-24T16:16:15.692Z,13.77
2017-09-24T16:18:43.128Z,14.67
2017-09-24T16:21:10.526Z,14.20
2017-09-24T16:23:37.930Z,13.10
2017-09-24T16:26:05.390Z,14.07
2017-09-24T16:28:32.796Z,13.20
2017-09-24T16:31:00.206Z,15.30
2017-09-24T16:33:27.656Z,14.73
2017-09-24T16:35:55.123Z,14.90
2017-09-24T16:38:22.542Z,17.67
2017-09-24T16:40:49.956Z,20.13
2017-09-24T16:43:17.413Z,18.70
2017-09-24T16:45:44.803Z,20.30
2017-09-24T16:48:12.242Z,19.73
2017-09-24T16:50:39.689Z,18.97
2017-09-24T16:53:07.105Z,19.63
2017-09-24T16:55:34.546Z,18.97
2017-09-24T16:58:01.945Z,18.70
2017-09-24T17:00:29.577Z,19.00
2017-09-24T17:02:56.997Z,18.52
2017-09-24T17:05:24.422Z,18.57
2017-09-24T17:07:51.836Z,20.47
2017-09-24T17:10:19.281Z,21.20
2017-09-24T17:12:46.660Z,22.60
2017-09-24T17:15:14.104Z,19.80
2017-09-24T17:17:41.549Z,35.53
2017-09-24T17:20:09.027Z,19.83
2017-09-24T17:22:36.440Z,20.70
2017-09-24T17:25:03.862Z,19.17
2017-09-24T17:27:31.273Z,19.03
2017-09-24T17:29:58.683Z,19.83
2017-09-24T17:32:26.435Z,18.42
2017-09-24T17:34:53.884Z,18.97
2017-09-24T17:37:21.282Z,17.93
2017-09-24T17:39:48.742Z,19.00
2017-09-24T17:42:16.491Z,18.65
2017-09-24T17:44:43.892Z,20.17
2017-09-24T17:47:11.362Z,18.93
2017-09-24T17:49:38.774Z,19.53
2017-09-24T17:52:06.189Z,20.33
2017-09-24T17:54:37.074Z,20.67
2017-09-24T17:57:04.527Z,19.40
2017-09-24T17:59:32.279Z,21.47
2017-09-24T18:01:59.750Z,20.60
2017-09-24T18:04:27.207Z,21.05
2017-09-24T18:06:54.622Z,28.10
2017-09-24T18:09:22.060Z,20.27
2017-09-24T18:11:49.527Z,22.90
2017-09-24T18:14:16.948Z,23.20
2017-09-24T18:16:44.360Z,23.30
2017-09-24T18:19:11.795Z,22.07
2017-09-24T18:21:39.203Z,23.10
2017-09-24T18:24:06.738Z,22.43
2017-09-24T18:26:34.183Z,22.10
2017-09-24T18:29:01.590Z,23.50
2017-09-24T18:31:29.047Z,23.57
2017-09-24T18:33:57.767Z,21.87
2017-09-24T18:36:25.893Z,23.23
2017-09-24T18:38:53.374Z,21.30
2017-09-24T18:41:20.830Z,21.33
2017-09-24T18:43:48.339Z,23.53
2017-09-24T18:46:15.797Z,23.10
2017-09-24T18:48:43.231Z,23.43
2017-09-24T18:51:10.695Z,24.77
2017-09-24T18:53:38.115Z,24.27
2017-09-24T18:56:05.567Z,24.33
2017-09-24T18:58:33.008Z,25.37
2017-09-24T19:01:00.412Z,23.90
2017-09-24T19:03:27.854Z,22.60
2017-09-24T19:05:55.530Z,22.08
2017-09-24T19:08:22.967Z,22.33
2017-09-24T19:10:50.390Z,24.10
2017-09-24T19:13:17.859Z,23.60
2017-09-24T19:15:45.325Z,24.67
2017-09-24T19:18:12.862Z,25.43
2017-09-24T19:20:40.513Z,24.63
2017-09-24T19:23:07.953Z,23.93
2017-09-24T19:25:35.428Z,23.63
2017-09-24T19:28:03.485Z,26.47
2017-09-24T19:30:31.183Z,27.43
2017-09-24T19:32:58.675Z,24.73
2017-09-24T19:35:26.172Z,24.00
2017-09-24T19:37:53.695Z,23.33
2017-09-24T19:40:21.222Z,23.83
2017-09-24T19:42:48.639Z,25.10
2017-09-24T19:45:16.222Z,23.47
2017-09-24T19:47:43.721Z,40.87
2017-09-24T19:50:11.152Z,33.90
2017-09-24T19:52:38.581Z,132.35
2017-09-24T19:55:06.035Z,57.97
2017-09-24T19:57:33.533Z,25.87
2017-09-24T20:00:00.952Z,24.43
2017-09-24T20:02:28.358Z,24.73
2017-09-24T20:04:55.768Z,24.40
2017-09-24T20:07:23.222Z,23.50
2017-09-24T20:09:50.661Z,23.20
2017-09-24T20:12:18.093Z,24.40
2017-09-24T20:14:45.531Z,22.73
2017-09-24T20:17:12.958Z,24.80
2017-09-24T20:19:40.416Z,22.30
2017-09-24T20:22:07.818Z,23.60
2017-09-24T20:24:35.252Z,24.07
2017-09-24T20:27:02.672Z,22.92
2017-09-24T20:29:30.114Z,23.73
2017-09-24T20:31:57.542Z,22.27
2017-09-24T20:34:24.968Z,23.43
2017-09-24T20:36:52.408Z,23.70
2017-09-24T20:39:19.859Z,23.30
2017-09-24T20:41:47.273Z,27.00
2017-09-24T20:44:14.682Z,22.50
2017-09-24T20:46:42.102Z,21.57
2017-09-24T20:49:09.629Z,22.87
2017-09-24T20:51:37.036Z,23.37
2017-09-24T20:54:04.446Z,816.13
2017-09-24T20:56:31.889Z,24.27
2017-09-24T20:58:59.328Z,25.33
2017-09-24T21:01:26.718Z,24.90
2017-09-24T21:03:54.161Z,25.77
2017-09-24T21:06:21.559Z,27.57
2017-09-24T21:08:48.994Z,28.23
2017-09-24T21:11:16.401Z,28.10
2017-09-24T21:13:43.844Z,34.53
2017-09-24T21:16:11.254Z,31.73
2017-09-24T21:18:38.682Z,29.67
2017-09-24T21:21:06.106Z,34.53
2017-09-24T21:23:33.547Z,32.07
2017-09-24T21:26:00.968Z,43.53
2017-09-24T21:28:28.385Z,32.77
2017-09-24T21:30:56.053Z,33.47
2017-09-24T21:33:23.452Z,36.97
2017-09-24T21:35:50.885Z,43.93
2017-09-24T21:38:18.274Z,44.40
2017-09-24T21:40:45.692Z,36.80
2017-09-24T21:43:13.097Z,39.07
2017-09-24T21:45:40.545Z,37.90
2017-09-24T21:48:07.946Z,36.77
2017-09-24T21:50:35.346Z,36.70
2017-09-24T21:53:02.774Z,35.00
2017-09-24T21:55:30.164Z,42.03
2017-09-24T21:57:57.599Z,144.03
2017-09-24T22:00:25.017Z,39.13
2017-09-24T22:02:52.461Z,39.63
2017-09-24T22:05:19.861Z,40.13
2017-09-24T22:07:47.304Z,37.25
2017-09-24T22:10:14.752Z,38.13
2017-09-24T22:12:42.159Z,37.73
2017-09-24T22:15:09.550Z,38.90
2017-09-24T22:17:36.999Z,39.20
2017-09-24T22:20:04.385Z,35.10
2017-09-24T22:22:31.825Z,37.87
2017-09-24T22:24:59.223Z,40.07
2017-09-24T22:27:26.693Z,36.37
2017-09-24T22:29:54.085Z,33.80
2017-09-24T22:32:21.496Z,35.40
2017-09-24T22:34:48.913Z,34.67
2017-09-24T22:37:16.301Z,36.00
2017-09-24T22:39:43.733Z,36.70
2017-09-24T22:42:11.145Z,34.28
2017-09-24T22:44:38.566Z,33.63
2017-09-24T22:47:05.958Z,33.93
2017-09-24T22:49:33.389Z,34.53
2017-09-24T22:52:00.821Z,36.27
2017-09-24T22:54:28.241Z,35.22
2017-09-24T22:56:55.662Z,33.47
2017-09-24T22:59:23.070Z,32.77
2017-09-24T23:01:50.500Z,32.47
2017-09-24T23:04:17.909Z,35.40
2017-09-24T23:06:45.330Z,35.67
2017-09-24T23:09:12.757Z,38.77
2017-09-24T23:11:40.177Z,37.87
2017-09-24T23:14:07.584Z,35.37
2017-09-24T23:16:34.997Z,35.60
2017-09-24T23:19:02.399Z,36.20
2017-09-24T23:21:29.806Z,36.40
2017-09-24T23:23:57.240Z,36.57
2017-09-24T23:26:24.652Z,33.23
2017-09-24T23:28:52.040Z,34.10
2017-09-24T23:31:19.458Z,33.43
2017-09-24T23:33:46.885Z,32.27
2017-09-24T23:36:14.323Z,32.67
2017-09-24T23:38:41.738Z,32.20
2017-09-24T23:41:09.150Z,31.93
2017-09-24T23:43:36.561Z,43.63
2017-09-24T23:46:03.990Z,31.73
2017-09-24T23:48:31.405Z,30.52
2017-09-24T23:50:58.815Z,29.83
2017-09-24T23:53:26.809Z,32.72
2017-09-24T23:55:54.753Z,30.33
2017-09-24T23:58:22.156Z,31.53
